(°C)
31°
31°
30°
30°
29°
27°
25°
(°C)
32°
31°
30°
30°
29°
28°
26°
WZW
W
W
WNW
WNW
WNW
NW
(km/u)
12-30
12-30
12-29
10-24
8-20
6-16
5-13
(mm)
0
0
0
0
0
0
0
(%)
0
0
0
0
0
0
0

Zonverhoging

/ 53.6°
sun-icon
UV 8
05:16
20:47
(6°)
05:06
21:33

METAR voor 44.1°N 15.3°O (LDZD)

Tijd Voorwaarden Temperatuur/
Dauwpunt
Wind Zicht Weer Wolken Luchtdruk Wijzigen Ruw
VFR 31°C / 20°C 280º variable 240º to 020º 10kt >10km - Clouds and Visibility OK 1011 No Significant change LDZD 291300Z 28010KT 240V020 CAVOK 31/20 Q1011 NOSIG
VFR 32°C / 21°C variable 6kt >10km - Clouds and Visibility OK 1011 Temporary: Wind 220º 10kt. LDZD 291230Z VRB06KT CAVOK 32/21 Q1011 TEMPO 22010KT
VFR 31°C / 20°C 190º variable 120º to 260º 7kt >10km - Clouds and Visibility OK 1011 Becoming: Wind 210º 10kt. LDZD 291200Z 19007KT 120V260 CAVOK 31/20 Q1011 BECMG 21010KT
VFR 32°C / 20°C 170º variable 080º to 230º 10kt >10km - Clouds and Visibility OK 1011 Becoming: Wind 220º 8kt. LDZD 291130Z 17010KT 080V230 CAVOK 32/20 Q1011 BECMG 22008KT
VFR 32°C / 19°C 170º variable 130º to 220º 9kt Gust 19kt >10km - Clouds and Visibility OK 1011 Becoming: Wind 220º 8kt. LDZD 291100Z 17009G19KT 130V220 CAVOK 32/19 Q1011 BECMG 22008KT
VFR 32°C / 19°C 180º variable 130º to 230º 12kt >10km - Few Clouds 4500ft 1011 Becoming: Wind 220º 10kt. LDZD 291030Z 18012KT 130V230 9999 FEW045 32/19 Q1011 BECMG 22010KT
VFR 32°C / 20°C 170º variable 140º to 210º 11kt >10km - Few Clouds 4500ft 1011 Becoming: Wind 220º 10kt. LDZD 291000Z 17011KT 140V210 9999 FEW045 32/20 Q1011 BECMG 22010KT
VFR 31°C / 20°C 180º variable 140º to 240º 12kt >10km - Few Clouds 4500ft 1011 No Significant change LDZD 290930Z 18012KT 140V240 9999 FEW045 31/20 Q1011 NOSIG
VFR 31°C / 19°C 160º variable 130º to 190º 14kt >10km - Clouds and Visibility OK 1011 No Significant change LDZD 290900Z 16014KT 130V190 CAVOK 31/19 Q1011 NOSIG
VFR 31°C / 19°C 160º variable 110º to 200º 15kt >10km - Clouds and Visibility OK 1011 No Significant change LDZD 290830Z 16015KT 110V200 CAVOK 31/19 Q1011 NOSIG
VFR 31°C / 19°C 170º variable 130º to 210º 11kt >10km - Clouds and Visibility OK 1011 No Significant change LDZD 290800Z 17011KT 130V210 CAVOK 31/19 Q1011 NOSIG
VFR 30°C / 20°C 190º variable 160º to 220º 10kt >10km - Clouds and Visibility OK 1011 No Significant change LDZD 290730Z 19010KT 160V220 CAVOK 30/20 Q1011 NOSIG
VFR 29°C / 19°C 180º variable 140º to 210º 10kt >10km - Clouds and Visibility OK 1011 No Significant change LDZD 290700Z 18010KT 140V210 CAVOK 29/19 Q1011 NOSIG
VFR 29°C / 19°C 180º 11kt >10km - Clouds and Visibility OK 1011 No Significant change LDZD 290630Z 18011KT CAVOK 29/19 Q1011 NOSIG
VFR 29°C / 17°C 170º variable 140º to 230º 7kt >10km - Clouds and Visibility OK 1011 No Significant change LDZD 290600Z 17007KT 140V230 CAVOK 29/17 Q1011 NOSIG
VFR 27°C / 17°C 210º variable 170º to 270º 3kt >10km - Clouds and Visibility OK 1011 No Significant change LDZD 290530Z 21003KT 170V270 CAVOK 27/17 Q1011 NOSIG
VFR 25°C / 18°C variable 0kt >10km - Clouds and Visibility OK 1011 No Significant change LDZD 290500Z 00000KT CAVOK 25/18 Q1011 NOSIG
VFR 24°C / 17°C 110º variable 070º to 170º 4kt >10km - Clouds and Visibility OK 1011 No Significant change LDZD 290430Z 11004KT 070V170 CAVOK 24/17 Q1011 NOSIG
VFR 23°C / 17°C 150º 5kt >10km - Clouds and Visibility OK 1011 No Significant change LDZD 290400Z 15005KT CAVOK 23/17 Q1011 NOSIG
VFR 24°C / 18°C 110º 6kt >10km - Clouds and Visibility OK 1011 No Significant change LDZD 290330Z 11006KT CAVOK 24/18 Q1011 NOSIG
VFR 23°C / 18°C 150º 5kt >10km - Clouds and Visibility OK 1011 No Significant change LDZD 290300Z 15005KT CAVOK 23/18 Q1011 NOSIG
VFR 23°C / 19°C 120º 6kt >10km - Clouds and Visibility OK 1011 No Significant change LDZD 290230Z 12006KT CAVOK 23/19 Q1011 NOSIG
VFR 24°C / 18°C 120º 4kt >10km - Clouds and Visibility OK 1011 No Significant change LDZD 290200Z 12004KT CAVOK 24/18 Q1011 NOSIG
VFR 25°C / 19°C 100º 5kt >10km - Clouds and Visibility OK 1011 - LDZD 290130Z 10005KT CAVOK 25/19 Q1011

VFR

31°C / 20°C

[Meer]
Wind 280º variable 240º to 020º 10kt
Zicht >10km
Weer -
Wolken Clouds and Visibility OK
Luchtdruk 1011
Wijzigen No Significant change
Ruw LDZD 291300Z 28010KT 240V020 CAVOK 31/20 Q1011 NOSIG

VFR

32°C / 21°C

[Meer]
Wind variable 6kt
Zicht >10km
Weer -
Wolken Clouds and Visibility OK
Luchtdruk 1011
Wijzigen Temporary: Wind 220º 10kt.
Ruw LDZD 291230Z VRB06KT CAVOK 32/21 Q1011 TEMPO 22010KT

VFR

31°C / 20°C

[Meer]
Wind 190º variable 120º to 260º 7kt
Zicht >10km
Weer -
Wolken Clouds and Visibility OK
Luchtdruk 1011
Wijzigen Becoming: Wind 210º 10kt.
Ruw LDZD 291200Z 19007KT 120V260 CAVOK 31/20 Q1011 BECMG 21010KT

VFR

32°C / 20°C

[Meer]
Wind 170º variable 080º to 230º 10kt
Zicht >10km
Weer -
Wolken Clouds and Visibility OK
Luchtdruk 1011
Wijzigen Becoming: Wind 220º 8kt.
Ruw LDZD 291130Z 17010KT 080V230 CAVOK 32/20 Q1011 BECMG 22008KT

VFR

32°C / 19°C

[Meer]
Wind 170º variable 130º to 220º 9kt Gust 19kt
Zicht >10km
Weer -
Wolken Clouds and Visibility OK
Luchtdruk 1011
Wijzigen Becoming: Wind 220º 8kt.
Ruw LDZD 291100Z 17009G19KT 130V220 CAVOK 32/19 Q1011 BECMG 22008KT

VFR

32°C / 19°C

[Meer]
Wind 180º variable 130º to 230º 12kt
Zicht >10km
Weer -
Wolken Few Clouds 4500ft
Luchtdruk 1011
Wijzigen Becoming: Wind 220º 10kt.
Ruw LDZD 291030Z 18012KT 130V230 9999 FEW045 32/19 Q1011 BECMG 22010KT

VFR

32°C / 20°C

[Meer]
Wind 170º variable 140º to 210º 11kt
Zicht >10km
Weer -
Wolken Few Clouds 4500ft
Luchtdruk 1011
Wijzigen Becoming: Wind 220º 10kt.
Ruw LDZD 291000Z 17011KT 140V210 9999 FEW045 32/20 Q1011 BECMG 22010KT

VFR

31°C / 20°C

[Meer]
Wind 180º variable 140º to 240º 12kt
Zicht >10km
Weer -
Wolken Few Clouds 4500ft
Luchtdruk 1011
Wijzigen No Significant change
Ruw LDZD 290930Z 18012KT 140V240 9999 FEW045 31/20 Q1011 NOSIG

VFR

31°C / 19°C

[Meer]
Wind 160º variable 130º to 190º 14kt
Zicht >10km
Weer -
Wolken Clouds and Visibility OK
Luchtdruk 1011
Wijzigen No Significant change
Ruw LDZD 290900Z 16014KT 130V190 CAVOK 31/19 Q1011 NOSIG

VFR

31°C / 19°C

[Meer]
Wind 160º variable 110º to 200º 15kt
Zicht >10km
Weer -
Wolken Clouds and Visibility OK
Luchtdruk 1011
Wijzigen No Significant change
Ruw LDZD 290830Z 16015KT 110V200 CAVOK 31/19 Q1011 NOSIG

VFR

31°C / 19°C

[Meer]
Wind 170º variable 130º to 210º 11kt
Zicht >10km
Weer -
Wolken Clouds and Visibility OK
Luchtdruk 1011
Wijzigen No Significant change
Ruw LDZD 290800Z 17011KT 130V210 CAVOK 31/19 Q1011 NOSIG

VFR

30°C / 20°C

[Meer]
Wind 190º variable 160º to 220º 10kt
Zicht >10km
Weer -
Wolken Clouds and Visibility OK
Luchtdruk 1011
Wijzigen No Significant change
Ruw LDZD 290730Z 19010KT 160V220 CAVOK 30/20 Q1011 NOSIG

VFR

29°C / 19°C

[Meer]
Wind 180º variable 140º to 210º 10kt
Zicht >10km
Weer -
Wolken Clouds and Visibility OK
Luchtdruk 1011
Wijzigen No Significant change
Ruw LDZD 290700Z 18010KT 140V210 CAVOK 29/19 Q1011 NOSIG

VFR

29°C / 19°C

[Meer]
Wind 180º 11kt
Zicht >10km
Weer -
Wolken Clouds and Visibility OK
Luchtdruk 1011
Wijzigen No Significant change
Ruw LDZD 290630Z 18011KT CAVOK 29/19 Q1011 NOSIG

VFR

29°C / 17°C

[Meer]
Wind 170º variable 140º to 230º 7kt
Zicht >10km
Weer -
Wolken Clouds and Visibility OK
Luchtdruk 1011
Wijzigen No Significant change
Ruw LDZD 290600Z 17007KT 140V230 CAVOK 29/17 Q1011 NOSIG

VFR

27°C / 17°C

[Meer]
Wind 210º variable 170º to 270º 3kt
Zicht >10km
Weer -
Wolken Clouds and Visibility OK
Luchtdruk 1011
Wijzigen No Significant change
Ruw LDZD 290530Z 21003KT 170V270 CAVOK 27/17 Q1011 NOSIG

VFR

25°C / 18°C

[Meer]
Wind variable 0kt
Zicht >10km
Weer -
Wolken Clouds and Visibility OK
Luchtdruk 1011
Wijzigen No Significant change
Ruw LDZD 290500Z 00000KT CAVOK 25/18 Q1011 NOSIG

VFR

24°C / 17°C

[Meer]
Wind 110º variable 070º to 170º 4kt
Zicht >10km
Weer -
Wolken Clouds and Visibility OK
Luchtdruk 1011
Wijzigen No Significant change
Ruw LDZD 290430Z 11004KT 070V170 CAVOK 24/17 Q1011 NOSIG

VFR

23°C / 17°C

[Meer]
Wind 150º 5kt
Zicht >10km
Weer -
Wolken Clouds and Visibility OK
Luchtdruk 1011
Wijzigen No Significant change
Ruw LDZD 290400Z 15005KT CAVOK 23/17 Q1011 NOSIG

VFR

24°C / 18°C

[Meer]
Wind 110º 6kt
Zicht >10km
Weer -
Wolken Clouds and Visibility OK
Luchtdruk 1011
Wijzigen No Significant change
Ruw LDZD 290330Z 11006KT CAVOK 24/18 Q1011 NOSIG

VFR

23°C / 18°C

[Meer]
Wind 150º 5kt
Zicht >10km
Weer -
Wolken Clouds and Visibility OK
Luchtdruk 1011
Wijzigen No Significant change
Ruw LDZD 290300Z 15005KT CAVOK 23/18 Q1011 NOSIG

VFR

23°C / 19°C

[Meer]
Wind 120º 6kt
Zicht >10km
Weer -
Wolken Clouds and Visibility OK
Luchtdruk 1011
Wijzigen No Significant change
Ruw LDZD 290230Z 12006KT CAVOK 23/19 Q1011 NOSIG

VFR

24°C / 18°C

[Meer]
Wind 120º 4kt
Zicht >10km
Weer -
Wolken Clouds and Visibility OK
Luchtdruk 1011
Wijzigen No Significant change
Ruw LDZD 290200Z 12004KT CAVOK 24/18 Q1011 NOSIG

VFR

25°C / 19°C

[Meer]
Wind 100º 5kt
Zicht >10km
Weer -
Wolken Clouds and Visibility OK
Luchtdruk 1011
Wijzigen -
Ruw LDZD 290130Z 10005KT CAVOK 25/19 Q1011

TAF voor 44.1°N 15.3°O (LDZD)

From till


Maximum Temperature 33ºC on . Minimum Temperature 19ºC on .
From till Wind 210º 10kt. Visibility 10km or more. Nil Significant Cloud.
Becoming from till Wind 270º 9kt. Visibility 10km or more. Nil Significant Cloud.
Becoming from till Wind 340º 5kt. Visibility 10km or more. Nil Significant Cloud.
Becoming from till Wind 270º 9kt. Visibility 10km or more. Nil Significant Cloud.

Ruw: TAF COR LDZD 291251Z 2912/3012 21010KT CAVOK TX33/2912Z TN19/3003Z BECMG 2913/2915 27009KT BECMG 2917/2919 34005KT BECMG 3008/3010 27009KT

Radar en neerslag nowcast voor 44.1°N 15.3°O

Motregen
Licht
Matig
Zwaar
Zeer zwaar
Hagel

De locatiemarkering is op 44.1°N 15.3°O geplaatst . Deze animation toont de neerslag radar van het afgelopen uur, maar ook de 1h verwachting. Motregen of lichte sneeuwval kan onzichtbaar zijn voor de radar. De neerslagintensiteit wordt met kleuren weergegeven, van lichtblauw tot oranje.

Huidige satelliet- en regenbeelden voor 44.1°N 15.3°O

De locatiemarkering is op 44.1°N 15.3°O geplaatst. [Meer]

Het realtime satellietbeeld combineert zichtbaar licht overdag met infraroodstraling 's nachts. 's Nachts is het beeld niet donker, omdat infraroodstraling temperatuurverschillen kan waarnemen. Helaas zijn lage wolken en mist moeilijk te onderscheiden van grondtemperaturen en kunnen dus 's nachts bijna onzichtbaar zijn. Meteosat-satellietbeelden voor Europa worden elke 5 minuten in real time bijgewerkt. De beelden van GOES-16/GOES-17 (Noord- en Zuid-Amerika) en Himawari (Azië) worden om de 10 minuten bijgewerkt.

Neerslag wordt geschat door middel van radar en satellieten. Tijdens de nacht zijn de schattingen van satellieten minder nauwkeurig dan overdag. Oranje kruizen geven plaatsten aan waar bliksem werd waargenomen (boven Europa).

Copyright 2022 EUMETSAT / meteoblue. Bliksemgegevens verstrekt door nowcast.

Terug naar boven